Buena Vista, Wisconsin
Current Conditions -  °F | °C
As of 4:15 AM on Saturday 25 Oct 2014 (Local Time) from KSTE Reporting Station
Haze Haze  
Wind Chill: 51°   Ceiling: Unl
Heat Index: 51°   Visibility: 5mi
Dew Point: 50°   Wind: 7mph
Humidity: 97%   Direction: 270°W
Pressure: 29.85"   Gusts: NA
Location:  44.4117°N, 89.5378°W
Report Text: KSTE 250915Z AUTO 27006KT 5SM BR SCT007 11/10 A2985 RMK AO2 T01060101
Loading
Personal Weather Stations






























Interactive Weather Map
Tropical Storm Tracking
New forecast layout! Learn more

10-Day Weather Forecast

Advertisements
Track Severe Weather on mobile